Time;durP1;ratioP1;P1;durP2;ratioP2;P2;SDS_P1;SDS_P2;PMS_P1;PMS_P2;Temp;Humidity;BMP_temperature;BMP_pressure;BME280_temperature;BME280_humidity;BME280_pressure;Samples;Min_cycle;Max_cycle;Signal;HPM_P1;HPM_P2
2022/11/22 00:01:37;;;;;;;84.10;44.60;;;;;;;-0.48;100.00;96962.59;1739236;82;21175;-76
2022/11/22 00:04:04;;;;;;;83.92;43.13;;;;;;;-0.50;100.00;96964.69;1738915;81;20988;-76
2022/11/22 00:06:31;;;;;;;80.85;42.90;;;;;;;-0.55;100.00;96960.05;1739158;82;21036;-81
2022/11/22 00:08:58;;;;;;;98.90;51.85;;;;;;;-0.59;100.00;96957.06;1738938;81;21021;-76
2022/11/22 00:11:25;;;;;;;95.92;54.88;;;;;;;-0.72;100.00;96965.28;1738916;82;21473;-76
2022/11/22 00:13:52;;;;;;;90.07;47.50;;;;;;;-0.70;100.00;96965.05;1738906;81;21032;-80
2022/11/22 00:16:19;;;;;;;80.12;44.83;;;;;;;-0.76;100.00;96970.80;1738904;82;20965;-80
2022/11/22 00:18:45;;;;;;;84.35;48.10;;;;;;;-0.81;100.00;96963.21;1731403;81;20962;-76
2022/11/22 00:21:12;;;;;;;79.00;45.78;;;;;;;-0.81;100.00;96964.02;1712509;83;21455;-80
2022/11/22 00:23:39;;;;;;;90.97;45.25;;;;;;;-0.81;100.00;96966.68;1712708;82;20967;-80
2022/11/22 00:26:10;;;;;;;79.95;43.38;;;;;;;-0.80;100.00;96971.48;1712684;83;21023;-80
2022/11/22 00:28:35;;;;;;;75.70;41.70;;;;;;;-0.82;100.00;96969.58;1712094;82;21699;-76
2022/11/22 00:31:02;;;;;;;77.50;38.88;;;;;;;-0.80;100.00;96972.81;1712651;83;21042;-81
2022/11/22 00:33:29;;;;;;;87.62;45.65;;;;;;;-0.74;100.00;96978.53;1713383;82;21573;-81
2022/11/22 00:35:56;;;;;;;71.35;36.38;;;;;;;-0.69;100.00;96970.65;1714121;83;20979;-76
2022/11/22 00:38:22;;;;;;;71.17;36.93;;;;;;;-0.68;100.00;96977.09;1714210;82;21007;-81
2022/11/22 00:40:49;;;;;;;70.20;37.70;;;;;;;-0.63;100.00;96979.03;1714132;83;20947;-80
2022/11/22 00:43:16;;;;;;;81.28;38.83;;;;;;;-0.57;100.00;96974.92;1713996;83;21388;-76
2022/11/22 00:45:43;;;;;;;70.35;36.35;;;;;;;-0.56;100.00;96973.08;1714179;83;21003;-81
2022/11/22 00:48:10;;;;;;;83.45;38.13;;;;;;;-0.57;100.00;96980.25;1714100;83;21502;-82
2022/11/22 00:50:38;;;;;;;74.45;38.17;;;;;;;-0.59;100.00;96978.88;1714083;83;21054;-76
2022/11/22 00:53:05;;;;;;;76.75;34.15;;;;;;;-0.59;100.00;96982.34;1714208;83;21011;-76
2022/11/22 00:55:31;;;;;;;67.03;34.13;;;;;;;-0.57;100.00;96984.77;1714100;83;20999;-80
2022/11/22 00:57:58;;;;;;;79.20;36.13;;;;;;;-0.54;100.00;96990.94;1714172;83;20951;-76
2022/11/22 01:00:25;;;;;;;68.80;29.80;;;;;;;-0.56;100.00;96985.05;1714193;83;21396;-76
2022/11/22 01:02:52;;;;;;;76.30;31.60;;;;;;;-0.54;100.00;96986.95;1714195;83;20971;-80
2022/11/22 01:05:19;;;;;;;70.10;31.68;;;;;;;-0.54;100.00;96992.27;1714002;83;20940;-76
2022/11/22 01:07:46;;;;;;;55.45;28.02;;;;;;;-0.57;100.00;96988.76;1714220;83;20990;-76
2022/11/22 01:10:13;;;;;;;65.40;29.60;;;;;;;-0.53;100.00;96991.75;1714226;83;22013;-76
2022/11/22 01:12:39;;;;;;;51.63;27.17;;;;;;;-0.52;100.00;96997.35;1714158;83;20944;-76
2022/11/22 01:15:07;;;;;;;52.17;25.25;;;;;;;-0.51;100.00;96998.48;1714269;83;21050;-76
2022/11/22 01:17:34;;;;;;;50.80;26.02;;;;;;;-0.47;100.00;97002.80;1714169;83;21046;-81
2022/11/22 01:20:01;;;;;;;58.63;28.42;;;;;;;-0.44;100.00;96997.00;1714168;83;20935;-80
2022/11/22 01:22:28;;;;;;;60.43;29.48;;;;;;;-0.44;100.00;96997.00;1714178;83;21062;-76
2022/11/22 01:24:55;;;;;;;70.95;33.58;;;;;;;-0.37;100.00;96993.16;1714317;83;21049;-80
2022/11/22 01:27:22;;;;;;;62.27;28.60;;;;;;;-0.31;100.00;96992.76;1714120;83;21457;-80
2022/11/22 01:29:49;;;;;;;74.72;31.20;;;;;;;-0.22;100.00;96995.34;1714239;83;21106;-80
2022/11/22 01:32:16;;;;;;;65.00;28.85;;;;;;;-0.11;100.00;96998.48;1714056;82;20963;-76
2022/11/22 01:34:43;;;;;;;69.05;33.55;;;;;;;-0.03;100.00;96999.44;1712572;83;20982;-80
2022/11/22 01:37:10;;;;;;;70.30;32.23;;;;;;;-0.04;100.00;96996.50;1712706;82;21015;-76
2022/11/22 01:39:37;;;;;;;59.85;29.20;;;;;;;-0.04;100.00;96989.03;1712695;83;21758;-76
2022/11/22 01:42:04;;;;;;;64.12;28.52;;;;;;;-0.13;100.00;96983.27;1723191;82;20988;-76
2022/11/22 01:44:31;;;;;;;55.83;27.77;;;;;;;-0.15;100.00;96990.69;1739001;82;21012;-81
2022/11/22 01:47:13;;;;;;;59.93;25.00;;;;;;;-0.24;100.00;96988.11;1739137;82;20965;-80
2022/11/22 01:49:51;;;;;;;65.32;28.35;;;;;;;-0.24;100.00;96983.31;1739098;82;21012;-81
2022/11/22 01:52:21;;;;;;;62.10;28.20;;;;;;;-0.25;100.00;96985.17;1739100;81;20989;-80
2022/11/22 01:54:52;;;;;;;69.65;24.72;;;;;;;-0.25;100.00;96986.50;1739040;82;21016;-81
2022/11/22 01:57:24;;;;;;;50.17;23.83;;;;;;;-0.27;100.00;96983.77;1739019;81;20964;-76
2022/11/22 02:00:01;;;;;;;54.90;25.08;;;;;;;-0.33;100.00;96980.21;1739110;82;20988;-80
2022/11/22 02:02:28;;;;;;;50.92;23.77;;;;;;;-0.38;100.00;96978.77;1739091;81;21108;-80
2022/11/22 02:04:56;;;;;;;47.88;22.60;;;;;;;-0.45;100.00;96975.42;1739012;82;21016;-80
2022/11/22 02:07:30;;;;;;;64.13;25.83;;;;;;;-0.43;100.00;96973.33;1739169;81;20969;-76
2022/11/22 02:09:57;;;;;;;62.67;26.80;;;;;;;-0.44;100.00;96969.05;1738905;82;20999;-77
2022/11/22 02:12:27;;;;;;;50.83;23.73;;;;;;;-0.50;100.00;96967.34;1738843;81;20985;-81
2022/11/22 02:14:54;;;;;;;56.73;23.70;;;;;;;-0.49;100.00;96961.78;1739027;82;21003;-76
2022/11/22 02:17:23;;;;;;;47.83;23.20;;;;;;;-0.57;100.00;96957.63;1720076;81;21068;-80
2022/11/22 02:19:51;;;;;;;54.67;24.47;;;;;;;-0.60;100.00;96962.59;1720489;82;20996;-76
2022/11/22 02:22:32;;;;;;;50.30;21.60;;;;;;;-0.62;100.00;96966.02;1739195;81;21012;-76
2022/11/22 02:25:16;;;;;;;53.30;21.30;;;;;;;-0.66;100.00;96962.22;1739201;82;20949;-81
2022/11/22 02:27:43;;;;;;;52.95;23.52;;;;;;;-0.64;100.00;96965.45;1738944;81;21468;-76
2022/11/22 02:30:10;;;;;;;46.58;23.70;;;;;;;-0.70;100.00;96959.20;1739049;82;21119;-81
2022/11/22 02:32:37;;;;;;;52.10;22.85;;;;;;;-0.72;100.00;96954.64;1732345;82;21022;-81
2022/11/22 02:35:19;;;;;;;53.63;24.37;;;;;;;-0.74;100.00;96956.73;1712580;83;21010;-76
2022/11/22 02:37:48;;;;;;;53.02;24.05;;;;;;;-0.75;100.00;96956.45;1712536;82;22092;-80
2022/11/22 02:40:15;;;;;;;44.88;22.05;;;;;;;-0.73;100.00;96951.70;1712690;83;21148;-76
2022/11/22 02:42:46;;;;;;;49.63;22.22;;;;;;;-0.74;100.00;96955.41;1713260;83;20999;-76
2022/11/22 02:45:13;;;;;;;44.65;22.58;;;;;;;-0.75;100.00;96951.65;1714090;83;21050;-80
2022/11/22 02:47:40;;;;;;;46.10;20.60;;;;;;;-0.78;100.00;96946.77;1714233;83;21031;-76
2022/11/22 02:50:07;;;;;;;46.88;21.90;;;;;;;-0.80;100.00;96940.36;1714273;83;20952;-81
2022/11/22 02:52:34;;;;;;;41.48;20.48;;;;;;;-0.80;100.00;96950.20;1714207;83;21047;-80
2022/11/22 02:55:01;;;;;;;46.63;18.70;;;;;;;-0.82;100.00;96941.65;1714300;83;20987;-76
2022/11/22 02:57:28;;;;;;;45.15;18.87;;;;;;;-0.84;100.00;96935.23;1714117;83;21050;-81
2022/11/22 02:59:55;;;;;;;40.65;19.98;;;;;;;-0.92;100.00;96940.39;1714378;83;20983;-80
2022/11/22 03:02:22;;;;;;;43.20;18.95;;;;;;;-0.96;100.00;96932.57;1713980;83;21427;-80
2022/11/22 03:04:49;;;;;;;38.85;19.30;;;;;;;-0.94;100.00;96924.35;1714362;82;20980;-76
2022/11/22 03:07:16;;;;;;;36.93;19.10;;;;;;;-0.99;100.00;96925.59;1714024;83;20981;-76
2022/11/22 03:09:43;;;;;;;36.75;19.90;;;;;;;-1.00;100.00;96929.30;1714307;82;20975;-81
2022/11/22 03:12:10;;;;;;;40.67;18.75;;;;;;;-1.04;100.00;96922.80;1713989;83;21466;-76
2022/11/22 03:14:36;;;;;;;38.50;17.98;;;;;;;-1.08;100.00;96919.81;1714309;83;20964;-76
2022/11/22 03:17:03;;;;;;;45.20;19.55;;;;;;;-1.06;100.00;96916.39;1714114;83;21002;-76
2022/11/22 03:19:30;;;;;;;52.13;22.90;;;;;;;-1.09;100.00;96920.86;1713951;83;21543;-76
2022/11/22 03:21:57;;;;;;;62.33;24.80;;;;;;;-1.13;100.00;96917.03;1714004;83;21046;-81
2022/11/22 03:24:24;;;;;;;45.20;17.70;;;;;;;-1.17;100.00;96914.56;1714102;83;20987;-76
2022/11/22 03:26:51;;;;;;;43.45;18.65;;;;;;;-1.18;100.00;96914.27;1714023;83;20971;-77
2022/11/22 03:29:18;;;;;;;42.65;18.50;;;;;;;-1.26;100.00;96912.77;1713999;82;20987;-80
2022/11/22 03:31:45;;;;;;;40.15;19.82;;;;;;;-1.29;100.00;96910.55;1714221;83;21423;-76
2022/11/22 03:34:13;;;;;;;42.38;20.65;;;;;;;-1.37;100.00;96918.06;1718462;83;20984;-76
2022/11/22 03:36:40;;;;;;;39.00;18.30;;;;;;;-1.42;100.00;96920.91;1719389;83;20941;-80
2022/11/22 03:39:07;;;;;;;37.25;17.00;;;;;;;-1.46;100.00;96922.39;1719239;83;20968;-76
2022/11/22 03:41:34;;;;;;;36.28;15.90;;;;;;;-1.53;100.00;96919.05;1718141;83;21050;-82
2022/11/22 03:44:01;;;;;;;32.65;16.23;;;;;;;-1.60;100.00;96922.33;1714128;83;21199;-76
2022/11/22 03:46:28;;;;;;;40.30;18.65;;;;;;;-1.67;100.00;96912.84;1713997;83;21438;-76
2022/11/22 03:48:55;;;;;;;45.75;19.67;;;;;;;-1.71;100.00;96921.77;1714047;83;21034;-76
2022/11/22 03:51:22;;;;;;;30.95;17.70;;;;;;;-1.79;100.00;96911.51;1714208;83;20972;-80
2022/11/22 03:53:49;;;;;;;38.95;17.98;;;;;;;-1.82;100.00;96907.95;1714098;83;21022;-76
2022/11/22 03:56:15;;;;;;;37.60;16.82;;;;;;;-1.87;100.00;96910.50;1714047;83;21042;-76
2022/11/22 03:58:42;;;;;;;28.85;16.25;;;;;;;-1.93;100.00;96914.87;1713961;83;20944;-76
2022/11/22 04:01:09;;;;;;;34.08;14.87;;;;;;;-1.93;100.00;96914.06;1714169;83;20960;-80
2022/11/22 04:03:36;;;;;;;32.30;16.32;;;;;;;-1.95;100.00;96917.47;1714039;83;20975;-80
2022/11/22 04:06:03;;;;;;;31.50;15.23;;;;;;;-2.00;100.00;96916.28;1714286;83;20940;-76
2022/11/22 04:08:30;;;;;;;29.85;17.55;;;;;;;-2.01;100.00;96917.84;1714144;83;21025;-76
2022/11/22 04:10:57;;;;;;;28.45;15.10;;;;;;;-2.03;100.00;96909.30;1714084;83;21054;-76
2022/11/22 04:15:05;;;;;;;25.17;14.30;;;;;;;-2.05;100.00;96913.52;1714146;83;21034;-76
2022/11/22 04:15:55;;;;;;;33.08;16.27;;;;;;;-2.06;100.00;96912.39;1712822;83;20995;-80
2022/11/22 04:18:22;;;;;;;29.65;16.05;;;;;;;-2.09;100.00;96904.38;1714173;83;20982;-80
2022/11/22 04:23:34;;;;;;;33.53;16.55;;;;;;;-2.15;100.00;96903.94;1714167;83;21415;-80
2022/11/22 04:26:01;;;;;;;31.30;16.12;;;;;;;-2.17;100.00;96905.20;1714233;83;21452;-79
2022/11/22 04:28:28;;;;;;;33.08;15.08;;;;;;;-2.16;100.00;96895.69;1714139;82;21038;-80
2022/11/22 04:33:40;;;;;;;36.48;18.73;;;;;;;-2.22;100.00;96895.77;1717506;83;21767;-76
2022/11/22 04:36:07;;;;;;;33.73;17.17;;;;;;;-2.25;100.00;96891.73;1719268;83;21500;-80
2022/11/22 04:38:34;;;;;;;31.70;17.52;;;;;;;-2.28;100.00;96892.20;1719258;83;21047;-80
2022/11/22 04:41:01;;;;;;;35.15;18.02;;;;;;;-2.29;100.00;96905.17;1719119;83;21000;-76
2022/11/22 04:46:14;;;;;;;27.80;15.72;;;;;;;-2.30;100.00;96900.91;1714236;83;21072;-76
2022/11/22 04:48:41;;;;;;;38.55;18.55;;;;;;;-2.33;100.00;96905.31;1703757;83;20991;-80
2022/11/22 04:53:55;;;;;;;35.50;17.00;;;;;;;-2.34;100.00;96901.86;1705374;83;20975;-76
2022/11/22 04:56:22;;;;;;;36.95;19.57;;;;;;;-2.37;100.00;96899.66;1714256;83;20952;-80
2022/11/22 04:58:50;;;;;;;38.83;17.57;;;;;;;-2.42;100.00;96900.03;1714214;83;21005;-76
2022/11/22 05:01:17;;;;;;;40.08;19.23;;;;;;;-2.43;100.00;96899.75;1713989;82;21031;-76
2022/11/22 05:03:44;;;;;;;36.85;18.85;;;;;;;-2.49;100.00;96896.13;1714088;82;21492;-76
2022/11/22 05:06:11;;;;;;;38.38;19.75;;;;;;;-2.49;100.00;96893.48;1714190;83;21000;-80
2022/11/22 05:08:38;;;;;;;47.95;24.50;;;;;;;-2.52;100.00;96898.44;1714134;83;20979;-80
2022/11/22 05:11:05;;;;;;;41.42;21.40;;;;;;;-2.58;100.00;96897.48;1714111;83;21269;-76
2022/11/22 05:13:35;;;;;;;41.40;20.97;;;;;;;-2.63;100.00;96898.68;1714048;83;21081;-76
2022/11/22 05:16:03;;;;;;;43.15;21.10;;;;;;;-2.62;100.00;96895.80;1714033;83;21067;-80
2022/11/22 05:18:30;;;;;;;43.15;18.57;;;;;;;-2.65;100.00;96894.09;1714247;82;21046;-80
2022/11/22 05:20:59;;;;;;;39.58;20.17;;;;;;;-2.62;100.00;96897.64;1714197;83;21058;-80
2022/11/22 05:26:12;;;;;;;39.70;19.95;;;;;;;-2.66;100.00;96899.11;1714208;83;21416;-76
2022/11/22 05:28:39;;;;;;;38.42;18.20;;;;;;;-2.66;100.00;96895.12;1714101;83;21019;-80
2022/11/22 05:31:11;;;;;;;33.23;17.23;;;;;;;-2.66;100.00;96892.48;1713968;82;21070;-76
2022/11/22 05:33:40;;;;;;;44.25;21.50;;;;;;;-2.68;100.00;96901.98;1713058;82;21509;-76
2022/11/22 05:36:07;;;;;;;38.65;20.00;;;;;;;-2.72;100.00;96896.84;1712809;83;21625;-80
2022/11/22 05:38:34;;;;;;;51.40;20.00;;;;;;;-2.71;100.00;96906.94;1712444;82;21459;-80
2022/11/22 05:41:02;;;;;;;48.00;24.23;;;;;;;-2.71;100.00;96898.47;1712668;83;21026;-80
2022/11/22 05:43:29;;;;;;;40.03;21.93;;;;;;;-2.71;100.00;96898.47;1714024;83;21054;-80
2022/11/22 05:45:58;;;;;;;46.63;20.55;;;;;;;-2.69;100.00;96900.89;1714266;83;21082;-76
2022/11/22 05:48:25;;;;;;;37.78;22.27;;;;;;;-2.68;100.00;96904.64;1713922;83;21050;-76
2022/11/22 05:50:52;;;;;;;48.73;22.52;;;;;;;-2.76;100.00;96908.11;1703758;83;21019;-76
2022/11/22 05:53:19;;;;;;;44.75;22.20;;;;;;;-2.78;100.00;96905.69;1713855;83;21038;-80
2022/11/22 05:55:46;;;;;;;42.00;22.37;;;;;;;-2.76;100.00;96902.80;1714332;83;21003;-80
2022/11/22 05:58:13;;;;;;;44.67;23.98;;;;;;;-2.75;100.00;96900.44;1711968;83;21439;-79
2022/11/22 06:00:40;;;;;;;43.28;20.68;;;;;;;-2.74;100.00;96900.73;1706160;82;21028;-81
2022/11/22 06:03:06;;;;;;;57.55;31.90;;;;;;;-2.75;100.00;96904.42;1702320;82;20978;-76
2022/11/22 06:05:33;;;;;;;54.40;30.27;;;;;;;-2.75;100.00;96901.77;1690570;82;20967;-80
2022/11/22 06:08:01;;;;;;;59.70;24.87;;;;;;;-2.74;100.00;96903.38;1702610;82;21402;-80
2022/11/22 06:10:28;;;;;;;45.53;22.80;;;;;;;-2.75;100.00;96899.12;1714469;82;21481;-76
2022/11/22 06:12:55;;;;;;;44.00;24.77;;;;;;;-2.77;100.00;96907.30;1714086;82;22087;-80
2022/11/22 06:15:22;;;;;;;41.60;22.42;;;;;;;-2.79;100.00;96912.02;1714157;83;20962;-80
2022/11/22 06:17:49;;;;;;;55.95;25.85;;;;;;;-2.79;100.00;96916.52;1712475;83;21025;-76
2022/11/22 06:20:16;;;;;;;62.98;30.23;;;;;;;-2.82;100.00;96917.75;1714276;83;21037;-78
2022/11/22 06:22:43;;;;;;;51.92;25.65;;;;;;;-2.78;100.00;96923.44;1714088;82;20974;-80
2022/11/22 06:25:10;;;;;;;56.45;24.47;;;;;;;-2.78;100.00;96920.27;1714127;83;21859;-80
2022/11/22 06:27:37;;;;;;;43.78;24.18;;;;;;;-2.78;100.00;96921.59;1714074;82;20961;-76
2022/11/22 06:30:05;;;;;;;51.05;26.17;;;;;;;-2.82;100.00;96926.22;1712777;83;21068;-76
2022/11/22 06:32:33;;;;;;;61.10;30.10;;;;;;;-2.83;100.00;96933.36;1713052;82;21498;-80
2022/11/22 06:35:01;;;;;;;62.27;32.03;;;;;;;-2.81;100.00;96929.19;1712860;83;21022;-76
2022/11/22 06:37:28;;;;;;;56.55;28.47;;;;;;;-2.84;100.00;96925.92;1709068;82;21057;-76
2022/11/22 06:39:55;;;;;;;52.83;26.42;;;;;;;-2.83;100.00;96932.04;1701473;83;21017;-80
2022/11/22 06:42:22;;;;;;;50.45;27.42;;;;;;;-2.84;100.00;96937.86;1702070;82;21009;-76
2022/11/22 06:44:49;;;;;;;44.13;24.95;;;;;;;-2.85;100.00;96936.24;1706102;83;21335;-76
2022/11/22 06:47:16;;;;;;;49.93;26.87;;;;;;;-2.79;100.00;96938.54;1700809;83;21084;-79
2022/11/22 06:49:44;;;;;;;48.68;25.02;;;;;;;-2.82;100.00;96932.33;1690168;84;21056;-80
2022/11/22 06:52:11;;;;;;;44.70;26.15;;;;;;;-2.77;100.00;96939.64;1694658;83;21048;-80
2022/11/22 06:54:38;;;;;;;54.65;28.60;;;;;;;-2.73;100.00;96946.95;1711024;83;20982;-76
2022/11/22 06:57:05;;;;;;;53.98;26.45;;;;;;;-2.66;100.00;96949.50;1714119;83;20977;-76
2022/11/22 06:59:31;;;;;;;46.88;26.02;;;;;;;-2.63;100.00;96951.73;1714300;83;21025;-80
2022/11/22 07:01:58;;;;;;;53.38;25.32;;;;;;;-2.61;100.00;96951.79;1710192;83;21002;-76
2022/11/22 07:04:25;;;;;;;54.80;28.45;;;;;;;-2.58;100.00;96959.30;1702628;83;20926;-76
2022/11/22 07:06:52;;;;;;;50.35;26.80;;;;;;;-2.57;100.00;96955.61;1697310;82;21406;-80
2022/11/22 07:09:19;;;;;;;53.28;29.60;;;;;;;-2.53;100.00;96948.55;1686118;83;21084;-76
2022/11/22 07:11:46;;;;;;;59.20;29.50;;;;;;;-2.53;100.00;96943.24;1708887;83;21029;-76
2022/11/22 07:14:13;;;;;;;70.10;35.65;;;;;;;-2.48;100.00;96944.17;1708529;82;21390;-80
2022/11/22 07:16:40;;;;;;;64.35;34.98;;;;;;;-2.47;100.00;96933.89;1713727;83;21121;-80
2022/11/22 07:19:07;;;;;;;65.32;33.40;;;;;;;-2.44;100.00;96932.09;1691103;82;20997;-78
2022/11/22 07:21:34;;;;;;;75.50;39.25;;;;;;;-2.38;100.00;96928.56;1696502;82;21005;-78
2022/11/22 07:24:01;;;;;;;74.10;37.65;;;;;;;-2.33;100.00;96925.22;1698652;82;21454;-76
2022/11/22 07:26:28;;;;;;;80.50;43.48;;;;;;;-2.24;100.00;96929.70;1651536;83;21026;-76
2022/11/22 07:28:55;;;;;;;78.83;40.98;;;;;;;-2.16;100.00;96934.70;1711790;82;21044;-80
2022/11/22 07:31:22;;;;;;;75.00;41.92;;;;;;;-2.10;100.00;96934.61;1680780;82;20998;-76
2022/11/22 07:33:49;;;;;;;69.95;36.08;;;;;;;-2.06;100.00;96933.63;1708736;82;21001;-76
2022/11/22 07:36:18;;;;;;;56.70;29.63;;;;;;;-1.99;100.00;96929.05;1698023;82;20996;-76
2022/11/22 07:38:46;;;;;;;51.13;25.45;;;;;;;-1.93;100.00;96935.30;1712123;80;20993;-76
2022/11/22 07:41:13;;;;;;;48.68;24.87;;;;;;;-1.85;100.00;96934.98;1711201;82;21057;-76
2022/11/22 07:43:41;;;;;;;46.05;26.35;;;;;;;-1.80;100.00;96939.08;1706159;82;21119;-80
2022/11/22 07:46:28;;;;;;;51.53;25.57;;;;;;;-1.73;100.00;96937.94;1703537;82;21068;-76
2022/11/22 07:48:55;;;;;;;44.95;24.95;;;;;;;-1.68;100.00;96935.14;1703996;81;21075;-76
2022/11/22 07:51:21;;;;;;;46.98;27.07;;;;;;;-1.62;100.00;96939.03;1705046;82;21507;-80
2022/11/22 07:53:48;;;;;;;53.85;28.20;;;;;;;-1.55;100.00;96930.93;1704213;82;20974;-80
2022/11/22 07:56:16;;;;;;;49.65;28.25;;;;;;;-1.47;100.00;96927.41;1710744;82;21048;-76
2022/11/22 07:58:43;;;;;;;60.40;32.13;;;;;;;-1.38;100.00;96930.55;1697160;82;21573;-76
2022/11/22 08:01:12;;;;;;;68.72;37.40;;;;;;;-1.30;100.00;96931.53;1700566;82;21139;-80
2022/11/22 08:03:39;;;;;;;91.42;51.33;;;;;;;-1.24;100.00;96922.64;1704270;82;21670;-80
2022/11/22 08:06:07;;;;;;;159.27;72.50;;;;;;;-1.18;100.00;96931.03;1698457;83;21120;-83
2022/11/22 08:08:34;;;;;;;161.28;76.20;;;;;;;-1.13;100.00;96922.34;1696055;82;21044;-79
2022/11/22 08:11:01;;;;;;;199.75;83.82;;;;;;;-1.04;100.00;96922.28;1713342;82;21009;-83
2022/11/22 08:13:28;;;;;;;131.75;62.67;;;;;;;-0.95;100.00;96928.87;1712551;82;21032;-83
2022/11/22 08:16:01;;;;;;;120.37;60.50;;;;;;;-0.87;100.00;96926.38;1679169;83;21767;-82
2022/11/22 08:18:28;;;;;;;107.40;54.20;;;;;;;-0.78;100.00;96938.80;1684586;83;21053;-83
2022/11/22 08:21:11;;;;;;;79.77;40.45;;;;;;;-0.67;100.00;96938.80;1704896;82;21123;-79
2022/11/22 08:23:39;;;;;;;64.70;32.63;;;;;;;-0.58;100.00;96932.59;1711724;82;21512;-82
2022/11/22 08:26:07;;;;;;;78.02;42.85;;;;;;;-0.48;100.00;96935.45;1703903;82;21825;-83
2022/11/22 08:28:34;;;;;;;45.53;25.90;;;;;;;-0.41;100.00;96933.47;1692381;82;21519;-83
2022/11/22 08:31:04;;;;;;;37.73;20.57;;;;;;;-0.30;100.00;96937.94;1686216;82;21398;-79
2022/11/22 08:33:31;;;;;;;49.73;30.82;;;;;;;-0.21;100.00;96939.70;1698598;82;21051;-79
2022/11/22 08:35:58;;;;;;;40.15;25.60;;;;;;;-0.11;100.00;96930.57;1706057;83;22008;-76
2022/11/22 08:38:25;;;;;;;45.25;23.27;;;;;;;-0.01;100.00;96935.28;1702973;82;21167;-76
2022/11/22 08:40:52;;;;;;;35.55;19.30;;;;;;;0.08;100.00;96937.84;1710679;82;21076;-76
2022/11/22 08:43:19;;;;;;;35.45;19.05;;;;;;;0.15;100.00;96937.17;1702268;82;21044;-80
2022/11/22 08:45:58;;;;;;;43.78;21.97;;;;;;;0.24;100.00;96937.06;1713408;82;21029;-80
2022/11/22 08:48:26;;;;;;;43.50;25.40;;;;;;;0.33;100.00;96939.34;1701554;82;21127;-77
2022/11/22 08:50:57;;;;;;;50.12;28.27;;;;;;;0.40;100.00;96942.14;1686281;83;21453;-80
2022/11/22 08:53:24;;;;;;;45.23;26.23;;;;;;;0.47;100.00;96943.32;1708675;82;21023;-80
2022/11/22 08:55:51;;;;;;;41.60;23.27;;;;;;;0.56;100.00;96944.53;1711540;83;21113;-80
2022/11/22 08:58:18;;;;;;;37.08;22.67;;;;;;;0.64;100.00;96944.14;1698640;82;21166;-80
2022/11/22 09:00:45;;;;;;;48.42;25.75;;;;;;;0.74;100.00;96938.16;1688940;83;21099;-79
2022/11/22 09:03:12;;;;;;;43.48;22.17;;;;;;;0.86;100.00;96947.42;1685832;83;21998;-83
2022/11/22 09:05:39;;;;;;;42.35;22.42;;;;;;;1.00;100.00;96940.68;1712078;83;21033;-79
2022/11/22 09:08:06;;;;;;;35.95;20.70;;;;;;;1.11;100.00;96942.43;1712047;82;21108;-82
2022/11/22 09:10:32;;;;;;;38.45;24.07;;;;;;;1.23;100.00;96938.34;1712993;82;21445;-83
2022/11/22 09:12:59;;;;;;;41.63;25.62;;;;;;;1.38;100.00;96937.22;1701080;83;21013;-83
2022/11/22 09:15:26;;;;;;;35.80;20.72;;;;;;;1.51;100.00;96934.17;1697636;83;21051;-79
2022/11/22 09:18:02;;;;;;;41.20;23.75;;;;;;;1.64;100.00;96925.80;1688768;83;21110;-82
2022/11/22 09:20:28;;;;;;;33.88;20.77;;;;;;;1.79;100.00;96929.16;1699407;82;21025;-79
2022/11/22 09:22:55;;;;;;;32.23;17.98;;;;;;;1.97;100.00;96920.84;1716560;83;20982;-80
2022/11/22 09:25:22;;;;;;;33.90;21.57;;;;;;;2.12;100.00;96918.02;1700605;82;21457;-77
2022/11/22 09:27:49;;;;;;;27.02;16.45;;;;;;;2.25;100.00;96913.62;1695573;82;22529;-81
2022/11/22 09:30:16;;;;;;;26.45;14.90;;;;;;;2.40;100.00;96910.29;1686661;83;21084;-81
2022/11/22 09:32:43;;;;;;;31.42;17.48;;;;;;;2.56;100.00;96913.34;1694285;82;21102;-77
2022/11/22 09:35:10;;;;;;;27.98;16.42;;;;;;;2.83;100.00;96918.12;1685267;82;21449;-78
2022/11/22 09:37:37;;;;;;;40.38;20.60;;;;;;;3.00;100.00;96911.28;1710563;83;21056;-77
2022/11/22 09:40:05;;;;;;;134.65;53.75;;;;;;;3.14;100.00;96916.16;1692086;83;21018;-77
2022/11/22 09:43:02;;;;;;;165.37;65.50;;;;;;;3.23;100.00;96911.94;1701125;83;21422;-81
2022/11/22 09:45:46;;;;;;;118.45;54.70;;;;;;;3.36;100.00;96909.61;1702623;83;21032;-77
2022/11/22 09:48:31;;;;;;;91.85;45.08;;;;;;;3.46;100.00;96901.34;1703719;82;21090;-77
2022/11/22 09:51:08;;;;;;;26.57;14.20;;;;;;;3.52;100.00;96902.99;1683798;83;21319;-77
2022/11/22 09:53:57;;;;;;;18.87;11.53;;;;;;;3.68;100.00;96894.75;1711503;82;21029;-77
2022/11/22 09:56:24;;;;;;;;;;;;;;;3.82;100.00;96899.06;1697264;83;21093;-77
2022/11/22 09:58:55;;;;;;;16.80;10.65;;;;;;;3.95;100.00;96891.08;1709573;82;20163;-77
2022/11/22 10:01:49;;;;;;;24.60;11.10;;;;;;;4.07;100.00;96890.83;1704043;82;21055;-77
2022/11/22 10:04:28;;;;;;;19.37;10.80;;;;;;;4.12;100.00;96884.15;1706734;83;20965;-81
2022/11/22 10:07:01;;;;;;;19.85;11.00;;;;;;;4.23;100.00;96881.73;1706333;82;21036;-77
2022/11/22 10:09:52;;;;;;;25.88;13.45;;;;;;;4.28;100.00;96877.73;1693525;82;21124;-77
2022/11/22 10:12:36;;;;;;;15.83;9.63;;;;;;;4.37;100.00;96868.09;1698179;82;21508;-77
2022/11/22 10:15:40;;;;;;;17.67;9.93;;;;;;;4.45;100.00;96873.45;1699898;82;20989;-81
2022/11/22 10:18:43;;;;;;;21.02;12.20;;;;;;;4.52;100.00;96870.75;1639585;86;21584;-77
2022/11/22 10:21:12;;;;;;;32.05;17.98;;;;;;;4.61;100.00;96864.84;1623776;87;21152;-81
2022/11/22 10:23:42;;;;;;;26.35;15.10;;;;;;;4.68;100.00;96867.53;1706840;83;21151;-77
2022/11/22 10:26:25;;;;;;;41.00;18.92;;;;;;;4.74;100.00;96865.12;1702653;82;21452;-77
2022/11/22 10:29:18;;;;;;;29.57;13.68;;;;;;;4.81;100.00;96870.22;1699793;83;21087;-77
2022/11/22 10:32:03;;;;;;;22.48;13.10;;;;;;;4.92;100.00;96868.31;1694066;82;21166;-81
2022/11/22 10:34:56;;;;;;;28.27;14.90;;;;;;;5.01;100.00;96867.48;1700454;83;21029;-81
2022/11/22 10:37:35;;;;;;;13.38;8.03;;;;;;;5.06;100.00;96858.63;1704000;82;21004;-81
2022/11/22 10:40:16;;;;;;;23.20;13.13;;;;;;;5.19;100.00;96855.36;1693993;82;21032;-81
2022/11/22 10:43:15;;;;;;;21.33;8.35;;;;;;;5.34;100.00;96849.14;1704143;82;21552;-82
2022/11/22 10:45:46;;;;;;;30.32;14.65;;;;;;;5.44;100.00;96847.75;1705693;83;20980;-81
2022/11/22 10:48:30;;;;;;;16.95;7.53;;;;;;;5.64;100.00;96845.54;1701080;82;21025;-81
2022/11/22 10:51:21;;;;;;;12.35;6.62;;;;;;;5.71;100.00;96841.98;1707285;83;21776;-77
2022/11/22 10:54:18;;;;;;;10.10;4.60;;;;;;;5.81;100.00;96847.33;1703996;82;21064;-81
2022/11/22 10:56:53;;;;;;;21.45;13.08;;;;;;;5.91;100.00;96844.61;1661794;85;21039;-77
2022/11/22 11:00:02;;;;;;;9.93;6.45;;;;;;;6.00;100.00;96832.73;1699272;82;21028;-76
2022/11/22 11:02:47;;;;;;;17.25;7.55;;;;;;;6.06;100.00;96826.75;1700735;81;21115;-81
2022/11/22 11:05:18;;;;;;;10.65;5.55;;;;;;;6.18;100.00;96831.26;1710701;82;21025;-77
2022/11/22 11:07:49;;;;;;;13.75;6.42;;;;;;;6.23;100.00;96823.13;1704699;83;21010;-77
2022/11/22 11:10:22;;;;;;;10.48;6.35;;;;;;;6.29;100.00;96827.41;1712858;82;21433;-77
2022/11/22 11:12:55;;;;;;;18.57;9.53;;;;;;;6.33;100.00;96827.11;1712000;82;21067;-77
2022/11/22 11:15:25;;;;;;;12.10;6.67;;;;;;;6.39;100.00;96828.66;1714816;82;21505;-77
2022/11/22 11:17:56;;;;;;;20.27;9.13;;;;;;;6.44;97.81;96826.48;1698790;82;21659;-77
2022/11/22 11:20:30;;;;;;;27.90;14.20;;;;;;;6.51;100.00;96831.00;1682592;85;20943;-81
2022/11/22 11:22:57;;;;;;;21.60;10.48;;;;;;;6.51;100.00;96829.66;1706195;82;21029;-77
2022/11/22 11:25:39;;;;;;;12.70;7.42;;;;;;;6.52;100.00;96829.92;1712560;83;21057;-81
2022/11/22 11:28:29;;;;;;;19.10;11.38;;;;;;;6.54;100.00;96829.09;1659859;85;20998;-81
2022/11/22 11:31:06;;;;;;;24.72;13.38;;;;;;;6.57;99.33;96823.13;1645203;86;21107;-77
2022/11/22 11:33:37;;;;;;;60.88;30.08;;;;;;;6.67;97.45;96825.75;1695811;83;21048;-77
2022/11/22 11:36:11;;;;;;;36.20;18.35;;;;;;;6.72;91.88;96824.89;1707935;82;20990;-81
2022/11/22 11:38:47;;;;;;;10.20;5.70;;;;;;;6.77;91.13;96815.42;1712333;81;21040;-81